createdAt,value
2022-10-01T00:00:50.845Z,27.07
2022-10-01T00:01:52.453Z,27.09
2022-10-01T00:02:57.343Z,27.10
2022-10-01T00:03:58.872Z,27.09
2022-10-01T00:05:00.406Z,27.09
2022-10-01T00:06:11.481Z,27.05
2022-10-01T00:07:15.268Z,27.08
2022-10-01T00:08:17.104Z,27.10
2022-10-01T00:09:19.027Z,27.07
2022-10-01T00:10:20.547Z,27.06
2022-10-01T00:11:24.881Z,27.04
2022-10-01T00:12:26.424Z,27.07
2022-10-01T00:13:30.378Z,27.08
2022-10-01T00:14:32.074Z,27.07
2022-10-01T00:15:33.747Z,27.06
2022-10-01T00:16:35.365Z,27.07
2022-10-01T00:17:37.124Z,27.05
2022-10-01T00:18:40.520Z,27.06
2022-10-01T00:19:42.088Z,27.07
2022-10-01T00:20:43.703Z,27.07
2022-10-01T00:21:45.225Z,27.06
2022-10-01T00:22:47.410Z,27.07
2022-10-01T00:23:55.457Z,27.04
2022-10-01T00:24:57.479Z,27.06
2022-10-01T00:26:15.974Z,27.04
2022-10-01T00:27:18.127Z,27.09
2022-10-01T00:28:19.651Z,27.08
2022-10-01T00:29:21.313Z,27.09
2022-10-01T00:30:22.951Z,27.09
2022-10-01T00:31:25.481Z,27.08
2022-10-01T00:32:27.077Z,27.08
2022-10-01T00:33:28.654Z,27.08
2022-10-01T00:34:30.208Z,27.08
2022-10-01T00:35:31.969Z,27.04
2022-10-01T00:36:33.896Z,27.07
2022-10-01T00:37:39.084Z,27.04
2022-10-01T00:38:40.838Z,27.08
2022-10-01T00:39:42.420Z,27.06
2022-10-01T00:40:43.926Z,27.07
2022-10-01T00:41:45.477Z,27.07
2022-10-01T00:42:47.538Z,27.04
2022-10-01T00:43:54.828Z,27.04
2022-10-01T00:44:56.524Z,27.05
2022-10-01T00:46:06.983Z,27.03
2022-10-01T00:47:19.479Z,27.04
2022-10-01T00:48:22.888Z,27.05
2022-10-01T00:49:29.258Z,27.01
2022-10-01T00:50:34.071Z,27.04
2022-10-01T00:51:42.788Z,27.01
2022-10-01T00:52:52.123Z,27.01
2022-10-01T00:54:01.912Z,27.03
2022-10-01T00:55:23.625Z,27.00
2022-10-01T00:56:25.586Z,27.04
2022-10-01T00:57:27.716Z,27.02
2022-10-01T00:58:29.943Z,27.02
2022-10-01T00:59:31.820Z,26.99
2022-10-01T01:00:35.178Z,27.01
2022-10-01T01:01:38.934Z,27.02
2022-10-01T01:02:41.402Z,27.01
2022-10-01T01:03:42.974Z,27.01
2022-10-01T01:04:44.835Z,27.01
2022-10-01T01:05:47.789Z,27.03
2022-10-01T01:07:00.877Z,26.99
2022-10-01T01:08:03.805Z,27.03
2022-10-01T01:09:05.325Z,27.01
2022-10-01T01:10:07.592Z,27.02
2022-10-01T01:11:23.148Z,26.97
2022-10-01T01:13:03.466Z,26.95
2022-10-01T01:14:18.606Z,26.97
2022-10-01T01:15:38.592Z,26.97
2022-10-01T01:16:51.614Z,26.96
2022-10-01T01:18:11.443Z,26.96
2022-10-01T01:19:32.732Z,26.98
2022-10-01T01:20:49.018Z,26.98
2022-10-01T01:21:56.552Z,27.01
2022-10-01T01:23:11.280Z,26.98
2022-10-01T01:24:15.525Z,27.02
2022-10-01T01:25:22.213Z,27.00
2022-10-01T01:26:44.490Z,26.99
2022-10-01T01:28:21.843Z,26.95
2022-10-01T01:29:35.132Z,26.98
2022-10-01T01:30:41.132Z,27.01
2022-10-01T01:31:49.019Z,27.00
2022-10-01T01:32:55.251Z,26.99
2022-10-01T01:33:59.509Z,26.98
2022-10-01T01:35:04.362Z,27.00
2022-10-01T01:36:32.067Z,26.96
2022-10-01T01:37:40.669Z,26.98
2022-10-01T01:38:51.987Z,26.97
2022-10-01T01:39:57.134Z,26.99
2022-10-01T01:41:01.972Z,27.01
2022-10-01T01:42:09.430Z,26.99
2022-10-01T01:43:17.538Z,26.99
2022-10-01T01:44:25.829Z,26.99
2022-10-01T01:45:30.779Z,27.01
2022-10-01T01:46:38.391Z,27.00
2022-10-01T01:47:42.212Z,27.02
2022-10-01T01:48:49.570Z,27.01
2022-10-01T01:49:53.336Z,26.99
2022-10-01T01:51:04.566Z,26.98
2022-10-01T01:52:15.406Z,26.99
2022-10-01T01:53:17.109Z,27.02
2022-10-01T01:54:20.294Z,27.02
2022-10-01T01:55:26.938Z,26.99
2022-10-01T01:56:31.175Z,27.00
2022-10-01T01:57:33.541Z,27.02
2022-10-01T01:58:37.277Z,27.01
2022-10-01T01:59:40.542Z,26.99
2022-10-01T02:00:42.199Z,27.00
2022-10-01T02:01:44.800Z,27.00
2022-10-01T02:02:51.696Z,26.98
2022-10-01T02:03:53.314Z,26.99
2022-10-01T02:05:00.553Z,27.01
2022-10-01T02:06:05.038Z,26.99
2022-10-01T02:08:03.797Z,26.96
2022-10-01T02:09:24.252Z,27.00
2022-10-01T02:10:34.372Z,27.01
2022-10-01T02:11:46.787Z,27.01
2022-10-01T02:13:03.992Z,26.99
2022-10-01T02:14:37.425Z,26.98
2022-10-01T02:15:56.997Z,27.03
2022-10-01T02:17:05.982Z,27.01
2022-10-01T02:18:16.614Z,26.97
2022-10-01T02:19:33.682Z,26.97
2022-10-01T02:20:39.709Z,26.94
2022-10-01T02:21:57.115Z,26.95
2022-10-01T02:23:40.258Z,26.92
2022-10-01T02:24:48.034Z,26.98
2022-10-01T02:26:01.570Z,26.97
2022-10-01T02:27:09.808Z,26.97
2022-10-01T02:28:16.562Z,26.99
2022-10-01T02:29:21.238Z,26.99
2022-10-01T02:30:22.817Z,26.98
2022-10-01T02:31:24.718Z,26.97
2022-10-01T02:32:28.499Z,26.95
2022-10-01T02:33:32.925Z,26.95
2022-10-01T02:34:34.491Z,26.94
2022-10-01T02:35:37.837Z,26.93
2022-10-01T02:36:42.116Z,26.92
2022-10-01T02:37:45.910Z,26.92
2022-10-01T02:38:50.756Z,26.92
2022-10-01T02:39:56.443Z,26.93
2022-10-01T02:41:03.280Z,26.92
2022-10-01T02:42:07.617Z,26.95
2022-10-01T02:43:17.674Z,26.94
2022-10-01T02:44:25.701Z,26.93
2022-10-01T02:45:32.178Z,26.94
2022-10-01T02:46:44.588Z,26.93
2022-10-01T02:47:51.509Z,26.94
2022-10-01T02:48:53.454Z,26.95
2022-10-01T02:49:55.111Z,26.94
2022-10-01T02:51:31.137Z,26.89
2022-10-01T02:52:35.668Z,26.92
2022-10-01T02:53:52.857Z,26.90
2022-10-01T02:55:19.752Z,26.93
2022-10-01T02:56:48.593Z,26.96
2022-10-01T02:57:50.693Z,26.94
2022-10-01T02:58:52.649Z,26.93
2022-10-01T02:59:57.723Z,26.93
2022-10-01T03:00:59.374Z,26.91
2022-10-01T03:02:01.129Z,26.91
2022-10-01T03:03:02.789Z,26.90
2022-10-01T03:04:04.292Z,26.91
2022-10-01T03:05:06.661Z,26.91
2022-10-01T03:06:08.182Z,26.91
2022-10-01T03:07:09.783Z,26.91
2022-10-01T03:08:11.311Z,26.89
2022-10-01T03:09:13.521Z,26.89
2022-10-01T03:10:16.231Z,26.89
2022-10-01T03:11:17.793Z,26.89
2022-10-01T03:12:20.346Z,26.89
2022-10-01T03:13:23.472Z,26.89
2022-10-01T03:14:25.153Z,26.89
2022-10-01T03:15:26.731Z,26.89
2022-10-01T03:16:28.290Z,26.90
2022-10-01T03:17:30.054Z,26.89
2022-10-01T03:18:31.618Z,26.88
2022-10-01T03:19:33.183Z,26.90
2022-10-01T03:20:34.693Z,26.90
2022-10-01T03:21:36.500Z,26.90
2022-10-01T03:22:38.658Z,26.89
2022-10-01T03:23:40.163Z,26.87
2022-10-01T03:24:41.763Z,26.87
2022-10-01T03:25:43.264Z,26.86
2022-10-01T03:26:45.232Z,26.88
2022-10-01T03:27:46.829Z,26.89
2022-10-01T03:28:48.378Z,26.89
2022-10-01T03:29:50.271Z,26.87
2022-10-01T03:30:51.768Z,26.89
2022-10-01T03:31:53.856Z,26.89
2022-10-01T03:32:55.406Z,26.87
2022-10-01T03:34:00.404Z,26.87
2022-10-01T03:35:02.014Z,26.86
2022-10-01T03:36:06.527Z,26.83
2022-10-01T03:37:08.437Z,26.87
2022-10-01T03:38:10.004Z,26.85
2022-10-01T03:39:11.504Z,26.86
2022-10-01T03:40:13.115Z,26.86
2022-10-01T03:41:14.651Z,26.87
2022-10-01T03:42:16.789Z,26.86
2022-10-01T03:43:18.326Z,26.85
2022-10-01T03:44:19.901Z,26.85
2022-10-01T03:45:21.537Z,26.85
2022-10-01T03:46:23.288Z,26.87
2022-10-01T03:47:26.234Z,26.87
2022-10-01T03:48:29.253Z,26.87
2022-10-01T03:49:30.810Z,26.88
2022-10-01T03:50:32.340Z,26.86
2022-10-01T03:51:34.962Z,26.86
2022-10-01T03:52:36.720Z,26.85
2022-10-01T03:53:38.622Z,26.86
2022-10-01T03:54:40.193Z,26.85
2022-10-01T03:55:41.702Z,26.84
2022-10-01T03:56:43.261Z,26.82
2022-10-01T03:57:44.767Z,26.82
2022-10-01T03:58:46.313Z,26.84
2022-10-01T03:59:47.868Z,26.84
2022-10-01T04:00:50.941Z,26.86
2022-10-01T04:01:52.675Z,26.84
2022-10-01T04:02:54.349Z,26.83
2022-10-01T04:03:56.146Z,26.85
2022-10-01T04:04:57.673Z,26.84
2022-10-01T04:05:59.264Z,26.85
2022-10-01T04:07:00.772Z,26.86
2022-10-01T04:08:02.304Z,26.83
2022-10-01T04:09:04.010Z,26.84
2022-10-01T04:10:06.055Z,26.81
2022-10-01T04:11:08.145Z,26.81
2022-10-01T04:12:09.673Z,26.80
2022-10-01T04:13:11.227Z,26.81
2022-10-01T04:14:12.831Z,26.81
2022-10-01T04:15:14.359Z,26.79
2022-10-01T04:16:16.200Z,26.80
2022-10-01T04:17:17.773Z,26.82
2022-10-01T04:18:20.707Z,26.83
2022-10-01T04:19:22.228Z,26.82
2022-10-01T04:20:24.082Z,26.82
2022-10-01T04:21:25.855Z,26.81
2022-10-01T04:22:27.348Z,26.83
2022-10-01T04:23:28.934Z,26.85
2022-10-01T04:24:30.424Z,26.86
2022-10-01T04:25:31.953Z,26.87
2022-10-01T04:26:33.552Z,26.87
2022-10-01T04:27:35.142Z,26.87
2022-10-01T04:28:36.644Z,26.85
2022-10-01T04:29:40.201Z,26.86
2022-10-01T04:30:44.082Z,26.86
2022-10-01T04:31:45.675Z,26.88
2022-10-01T04:32:47.229Z,26.87
2022-10-01T04:33:48.839Z,26.87
2022-10-01T04:34:52.980Z,26.87
2022-10-01T04:35:54.502Z,26.87
2022-10-01T04:36:56.433Z,26.88
2022-10-01T04:38:03.420Z,26.88
2022-10-01T04:39:05.248Z,26.89
2022-10-01T04:40:07.139Z,26.91
2022-10-01T04:41:09.314Z,26.90
2022-10-01T04:42:13.339Z,26.90
2022-10-01T04:43:14.877Z,26.91
2022-10-01T04:44:16.431Z,26.90
2022-10-01T04:45:18.265Z,26.92
2022-10-01T04:46:19.842Z,26.91
2022-10-01T04:47:21.425Z,26.93
2022-10-01T04:48:23.537Z,26.93
2022-10-01T04:49:25.089Z,26.93
2022-10-01T04:50:27.049Z,26.93
2022-10-01T04:51:28.599Z,26.95
2022-10-01T04:52:30.120Z,26.95
2022-10-01T04:53:31.738Z,26.94
2022-10-01T04:54:33.250Z,26.95
2022-10-01T04:55:34.813Z,26.95
2022-10-01T04:56:36.340Z,26.96
2022-10-01T04:57:40.869Z,26.96
2022-10-01T04:58:42.420Z,26.96
2022-10-01T04:59:43.907Z,26.97
2022-10-01T05:00:45.583Z,26.97
2022-10-01T05:01:47.391Z,27.00
2022-10-01T05:02:50.521Z,27.03
2022-10-01T05:03:52.300Z,27.05
2022-10-01T05:04:54.475Z,27.06
2022-10-01T05:05:55.967Z,27.06
2022-10-01T05:06:57.457Z,27.07
2022-10-01T05:07:58.973Z,27.08
2022-10-01T05:09:00.670Z,27.06
2022-10-01T05:10:02.317Z,27.05
2022-10-01T05:11:03.819Z,27.05
2022-10-01T05:12:06.298Z,27.09
2022-10-01T05:13:08.394Z,27.17
2022-10-01T05:14:11.454Z,27.25
2022-10-01T05:15:14.097Z,27.33
2022-10-01T05:16:15.723Z,27.44
2022-10-01T05:17:18.364Z,27.51
2022-10-01T05:18:19.859Z,27.60
2022-10-01T05:19:21.722Z,27.62
2022-10-01T05:20:26.604Z,27.60
2022-10-01T05:21:28.126Z,27.56
2022-10-01T05:22:29.650Z,27.54
2022-10-01T05:23:31.466Z,27.50
2022-10-01T05:24:32.979Z,27.45
2022-10-01T05:25:34.545Z,27.40
2022-10-01T05:26:38.916Z,27.37
2022-10-01T05:27:41.133Z,27.35
2022-10-01T05:28:45.517Z,27.33
2022-10-01T05:29:47.035Z,27.30
2022-10-01T05:30:48.557Z,27.28
2022-10-01T05:31:50.368Z,27.27
2022-10-01T05:32:59.868Z,27.23
2022-10-01T05:34:01.488Z,27.25
2022-10-01T05:35:04.192Z,27.23
2022-10-01T05:36:07.015Z,27.22
2022-10-01T05:37:08.903Z,27.21
2022-10-01T05:38:10.786Z,27.20
2022-10-01T05:39:12.311Z,27.19
2022-10-01T05:40:14.084Z,27.17
2022-10-01T05:41:16.230Z,27.17
2022-10-01T05:42:17.817Z,27.16
2022-10-01T05:43:19.331Z,27.15
2022-10-01T05:44:24.034Z,27.15
2022-10-01T05:45:28.541Z,27.16
2022-10-01T05:46:31.186Z,27.18
2022-10-01T05:47:32.679Z,27.19
2022-10-01T05:48:37.009Z,27.18
2022-10-01T05:49:42.541Z,27.17
2022-10-01T05:50:44.282Z,27.18
2022-10-01T05:51:46.072Z,27.18
2022-10-01T05:52:50.807Z,27.18
2022-10-01T05:53:55.451Z,27.16
2022-10-01T05:54:57.406Z,27.19
2022-10-01T05:56:03.102Z,27.23
2022-10-01T05:57:05.714Z,27.25
2022-10-01T05:58:12.746Z,27.28
2022-10-01T05:59:14.975Z,27.37
2022-10-01T06:00:16.758Z,27.37
2022-10-01T06:01:18.303Z,27.37
2022-10-01T06:02:19.889Z,27.36
2022-10-01T06:03:22.071Z,27.36
2022-10-01T06:04:23.718Z,27.35
2022-10-01T06:05:25.738Z,27.34
2022-10-01T06:06:28.070Z,27.35
2022-10-01T06:07:32.547Z,27.33
2022-10-01T06:08:35.009Z,27.33
2022-10-01T06:09:36.534Z,27.35
2022-10-01T06:10:38.949Z,27.35
2022-10-01T06:11:40.720Z,27.35
2022-10-01T06:12:43.328Z,27.34
2022-10-01T06:13:46.571Z,27.35
2022-10-01T06:14:48.131Z,27.34
2022-10-01T06:15:52.810Z,27.33
2022-10-01T06:16:54.787Z,27.39
2022-10-01T06:17:56.478Z,27.36
2022-10-01T06:18:58.459Z,27.34
2022-10-01T06:20:00.373Z,27.37
2022-10-01T06:21:01.981Z,27.39
2022-10-01T06:22:03.509Z,27.39
2022-10-01T06:23:07.391Z,27.41
2022-10-01T06:24:09.312Z,27.42
2022-10-01T06:25:13.373Z,27.42
2022-10-01T06:26:14.898Z,27.41
2022-10-01T06:27:16.420Z,27.42
2022-10-01T06:28:19.262Z,27.41
2022-10-01T06:29:20.847Z,27.45
2022-10-01T06:30:22.669Z,27.49
2022-10-01T06:31:24.314Z,27.52
2022-10-01T06:32:25.883Z,27.58
2022-10-01T06:33:27.520Z,27.58
2022-10-01T06:34:29.055Z,27.58
2022-10-01T06:35:32.073Z,27.55
2022-10-01T06:36:34.068Z,27.52
2022-10-01T06:37:38.686Z,27.45
2022-10-01T06:38:40.224Z,27.42
2022-10-01T06:39:41.787Z,27.41
2022-10-01T06:40:43.502Z,27.36
2022-10-01T06:41:45.084Z,27.34
2022-10-01T06:42:53.744Z,27.28
2022-10-01T06:43:58.176Z,27.29
2022-10-01T06:44:59.713Z,27.26
2022-10-01T06:46:03.105Z,27.26
2022-10-01T06:47:04.703Z,27.26
2022-10-01T06:48:06.768Z,27.21
2022-10-01T06:49:08.416Z,27.19
2022-10-01T06:50:10.162Z,27.18
2022-10-01T06:51:11.743Z,27.18
2022-10-01T06:52:31.813Z,27.17
2022-10-01T06:53:33.339Z,27.16
2022-10-01T06:54:34.847Z,27.16
2022-10-01T06:55:37.635Z,27.13
2022-10-01T06:56:39.197Z,27.15
2022-10-01T06:57:40.756Z,27.12
2022-10-01T06:58:43.321Z,27.08
2022-10-01T06:59:44.900Z,27.09
2022-10-01T07:00:47.609Z,27.08
2022-10-01T07:01:55.521Z,27.07
2022-10-01T07:02:57.927Z,27.07
2022-10-01T07:03:59.471Z,27.10
2022-10-01T07:05:01.628Z,27.05
2022-10-01T07:06:05.424Z,27.08
2022-10-01T07:07:07.657Z,27.12
2022-10-01T07:08:09.540Z,27.16
2022-10-01T07:09:11.045Z,27.20
2022-10-01T07:10:12.762Z,27.24
2022-10-01T07:11:14.411Z,27.25
2022-10-01T07:12:15.918Z,27.30
2022-10-01T07:13:20.281Z,27.34
2022-10-01T07:14:21.876Z,27.38
2022-10-01T07:15:23.406Z,27.39
2022-10-01T07:16:25.018Z,27.40
2022-10-01T07:17:27.022Z,27.42
2022-10-01T07:18:28.543Z,27.46
2022-10-01T07:19:31.772Z,27.41
2022-10-01T07:20:35.986Z,26.66
2022-10-01T07:21:38.124Z,26.76
2022-10-01T07:22:39.644Z,26.39
2022-10-01T07:23:41.278Z,26.35
2022-10-01T07:24:43.052Z,26.39
2022-10-01T07:25:45.412Z,26.55
2022-10-01T07:26:50.963Z,26.53
2022-10-01T07:28:01.592Z,26.51
2022-10-01T07:29:03.313Z,26.66
2022-10-01T07:30:07.066Z,26.76
2022-10-01T07:31:12.250Z,26.84
2022-10-01T07:32:14.763Z,26.93
2022-10-01T07:33:19.102Z,26.97
2022-10-01T07:34:20.672Z,27.04
2022-10-01T07:35:23.069Z,27.11
2022-10-01T07:36:24.688Z,26.99
2022-10-01T07:37:26.214Z,27.02
2022-10-01T07:38:27.789Z,27.06
2022-10-01T07:39:30.559Z,27.13
2022-10-01T07:40:32.116Z,27.18
2022-10-01T07:41:33.914Z,27.22
2022-10-01T07:42:35.891Z,27.21
2022-10-01T07:43:39.351Z,27.14
2022-10-01T07:44:40.948Z,27.18
2022-10-01T07:45:44.571Z,27.24
2022-10-01T07:46:47.287Z,27.22
2022-10-01T07:48:00.542Z,27.22
2022-10-01T07:49:02.061Z,27.29
2022-10-01T07:50:03.981Z,27.30
2022-10-01T07:51:05.576Z,27.33
2022-10-01T07:52:12.380Z,27.34
2022-10-01T07:53:15.114Z,27.34
2022-10-01T07:54:16.761Z,27.30
2022-10-01T07:55:18.853Z,27.33
2022-10-01T07:56:20.500Z,27.34
2022-10-01T07:57:22.027Z,27.30
2022-10-01T07:58:24.294Z,27.34
2022-10-01T07:59:27.387Z,27.32
2022-10-01T08:00:30.897Z,25.78
2022-10-01T08:01:33.138Z,24.75
2022-10-01T08:02:36.225Z,25.19
2022-10-01T08:03:37.831Z,25.65
2022-10-01T08:04:57.945Z,25.95
2022-10-01T08:05:59.485Z,26.24
2022-10-01T08:07:01.049Z,26.22
2022-10-01T08:08:05.656Z,26.21
2022-10-01T08:09:07.193Z,26.28
2022-10-01T08:10:08.778Z,26.42
2022-10-01T08:11:13.818Z,26.54
2022-10-01T08:12:16.183Z,26.57
2022-10-01T08:13:18.179Z,26.32
2022-10-01T08:14:20.206Z,26.14
2022-10-01T08:15:21.706Z,26.22
2022-10-01T08:16:23.302Z,26.36
2022-10-01T08:17:29.195Z,26.46
2022-10-01T08:18:31.105Z,26.36
2022-10-01T08:19:32.683Z,25.12
2022-10-01T08:20:34.430Z,25.10
2022-10-01T08:21:36.463Z,25.32
2022-10-01T08:22:41.890Z,25.49
2022-10-01T08:23:43.939Z,25.77
2022-10-01T08:24:45.507Z,26.02
2022-10-01T08:25:47.971Z,26.16
2022-10-01T08:26:56.019Z,25.35
2022-10-01T08:27:57.797Z,25.07
2022-10-01T08:28:59.539Z,25.33
2022-10-01T08:30:01.037Z,25.61
2022-10-01T08:31:07.558Z,25.87
2022-10-01T08:32:10.719Z,26.06
2022-10-01T08:33:13.538Z,25.96
2022-10-01T08:34:15.397Z,25.34
2022-10-01T08:35:16.923Z,24.55
2022-10-01T08:36:19.657Z,24.68
2022-10-01T08:37:24.580Z,24.30
2022-10-01T08:38:26.110Z,24.52
2022-10-01T08:39:27.885Z,24.94
2022-10-01T08:40:30.552Z,25.31
2022-10-01T08:41:52.730Z,25.46
2022-10-01T08:43:02.633Z,25.50
2022-10-01T08:44:06.102Z,25.77
2022-10-01T08:45:34.830Z,25.90
2022-10-01T08:46:37.469Z,26.04
2022-10-01T08:47:43.294Z,26.16
2022-10-01T08:48:58.707Z,26.24
2022-10-01T08:50:06.181Z,26.34
2022-10-01T08:51:13.379Z,26.43
2022-10-01T08:52:14.827Z,26.43
2022-10-01T08:53:33.612Z,26.50
2022-10-01T08:54:39.840Z,26.64
2022-10-01T08:55:42.811Z,26.18
2022-10-01T08:56:47.554Z,24.63
2022-10-01T08:57:53.437Z,24.56
2022-10-01T08:58:59.057Z,25.05
2022-10-01T09:00:05.047Z,25.48
2022-10-01T09:01:07.025Z,25.81
2022-10-01T09:02:27.267Z,24.62
2022-10-01T09:03:32.452Z,24.61
2022-10-01T09:04:33.995Z,24.99
2022-10-01T09:05:52.460Z,25.27
2022-10-01T09:07:17.725Z,25.55
2022-10-01T09:08:48.349Z,25.53
2022-10-01T09:10:18.648Z,25.76
2022-10-01T09:12:07.967Z,25.87
2022-10-01T09:13:53.028Z,26.09
2022-10-01T09:15:15.972Z,26.12
2022-10-01T09:16:37.615Z,26.02
2022-10-01T09:17:50.281Z,25.95
2022-10-01T09:19:32.385Z,26.05
2022-10-01T09:20:46.606Z,26.22
2022-10-01T09:21:58.384Z,26.22
2022-10-01T09:23:24.645Z,26.27
2022-10-01T09:24:42.627Z,26.37
2022-10-01T09:25:50.210Z,26.42
2022-10-01T09:26:52.502Z,25.90
2022-10-01T09:28:03.151Z,25.91
2022-10-01T09:29:13.965Z,25.99
2022-10-01T09:30:17.623Z,26.14
2022-10-01T09:31:27.898Z,26.25
2022-10-01T09:32:47.316Z,26.32
2022-10-01T09:34:13.280Z,26.41
2022-10-01T09:35:32.808Z,26.37
2022-10-01T09:37:25.627Z,26.44
2022-10-01T09:38:38.894Z,25.97
2022-10-01T09:40:06.592Z,25.53
2022-10-01T09:41:10.688Z,25.59
2022-10-01T09:42:13.233Z,25.67
2022-10-01T09:43:15.245Z,24.91
2022-10-01T09:44:26.664Z,24.87
2022-10-01T09:45:28.715Z,25.23
2022-10-01T09:46:30.428Z,24.91
2022-10-01T09:47:33.269Z,25.20
2022-10-01T09:48:44.122Z,24.87
2022-10-01T09:49:46.240Z,24.42
2022-10-01T09:50:56.068Z,24.59
2022-10-01T09:52:28.673Z,24.57
2022-10-01T09:53:39.476Z,24.93
2022-10-01T09:55:11.249Z,25.31
2022-10-01T09:56:26.700Z,25.31
2022-10-01T09:57:37.862Z,25.57
2022-10-01T09:58:44.924Z,25.43
2022-10-01T10:00:01.344Z,25.28
2022-10-01T10:01:04.098Z,24.97
2022-10-01T10:02:16.273Z,24.87
2022-10-01T10:03:28.782Z,24.27
2022-10-01T10:04:31.109Z,24.65
2022-10-01T10:05:48.218Z,24.98
2022-10-01T10:07:01.962Z,24.77
2022-10-01T10:08:11.080Z,24.80
2022-10-01T10:09:19.075Z,25.11
2022-10-01T10:10:27.717Z,25.37
2022-10-01T10:11:31.747Z,25.51
2022-10-01T10:12:34.763Z,25.18
2022-10-01T10:13:40.401Z,24.59
2022-10-01T10:14:41.939Z,24.86
2022-10-01T10:15:50.683Z,25.06
2022-10-01T10:16:52.322Z,25.25
2022-10-01T10:17:55.714Z,25.44
2022-10-01T10:19:27.879Z,25.54
2022-10-01T10:20:38.198Z,25.75
2022-10-01T10:21:52.082Z,25.86
2022-10-01T10:22:53.888Z,25.80
2022-10-01T10:24:00.906Z,24.68
2022-10-01T10:25:13.703Z,24.11
2022-10-01T10:26:42.501Z,24.34
2022-10-01T10:27:55.846Z,24.78
2022-10-01T10:28:58.267Z,24.88
2022-10-01T10:30:16.397Z,25.06
2022-10-01T10:31:51.075Z,24.31
2022-10-01T10:32:54.664Z,23.43
2022-10-01T10:34:08.142Z,23.88
2022-10-01T10:35:13.719Z,24.45
2022-10-01T10:36:16.918Z,24.83
2022-10-01T10:37:27.294Z,24.89
2022-10-01T10:38:32.794Z,25.13
2022-10-01T10:39:38.119Z,25.23
2022-10-01T10:40:44.779Z,25.31
2022-10-01T10:41:48.661Z,25.36
2022-10-01T10:42:52.010Z,25.50
2022-10-01T10:44:04.732Z,25.55
2022-10-01T10:45:17.607Z,25.66
2022-10-01T10:46:36.261Z,25.52
2022-10-01T10:47:46.708Z,25.13
2022-10-01T10:48:58.760Z,24.56
2022-10-01T10:50:05.943Z,24.67
2022-10-01T10:51:08.141Z,24.92
2022-10-01T10:52:44.952Z,25.07
2022-10-01T10:53:49.175Z,25.43
2022-10-01T10:54:54.547Z,25.56
2022-10-01T10:56:05.831Z,25.66
2022-10-01T10:57:28.949Z,25.69
2022-10-01T10:58:33.388Z,25.87
2022-10-01T10:59:35.003Z,25.70
2022-10-01T11:00:43.633Z,24.88
2022-10-01T11:01:47.615Z,23.59
2022-10-01T11:02:57.150Z,23.99
2022-10-01T11:04:01.025Z,24.23
2022-10-01T11:05:15.918Z,24.51
2022-10-01T11:06:18.744Z,24.95
2022-10-01T11:07:23.471Z,25.25
2022-10-01T11:08:28.922Z,25.33
2022-10-01T11:10:05.912Z,25.34
2022-10-01T11:11:10.099Z,25.48
2022-10-01T11:12:38.470Z,25.52
2022-10-01T11:14:03.262Z,25.10
2022-10-01T11:15:20.949Z,24.69
2022-10-01T11:17:12.470Z,24.16
2022-10-01T11:18:51.406Z,23.55
2022-10-01T11:20:17.472Z,24.10
2022-10-01T11:21:41.791Z,24.23
2022-10-01T11:23:01.377Z,24.07
2022-10-01T11:24:24.540Z,24.26
2022-10-01T11:25:28.978Z,24.62
2022-10-01T11:26:53.484Z,24.60
2022-10-01T11:28:21.456Z,24.82
2022-10-01T11:29:31.912Z,25.00
2022-10-01T11:30:55.570Z,25.18
2022-10-01T11:32:13.772Z,25.35
2022-10-01T11:33:38.637Z,25.49
2022-10-01T11:34:55.208Z,25.67
2022-10-01T11:36:20.297Z,25.80
2022-10-01T11:37:59.072Z,25.85
2022-10-01T11:39:05.602Z,25.37
2022-10-01T11:40:24.951Z,25.52
2022-10-01T11:41:29.692Z,25.69
2022-10-01T11:42:36.251Z,25.80
2022-10-01T11:43:43.786Z,25.92
2022-10-01T11:45:02.338Z,25.71
2022-10-01T11:46:13.297Z,25.75
2022-10-01T11:47:28.032Z,25.74
2022-10-01T11:48:42.783Z,25.82
2022-10-01T11:49:56.805Z,25.78
2022-10-01T11:51:04.352Z,25.93
2022-10-01T11:52:15.035Z,25.82
2022-10-01T11:53:24.964Z,25.78
2022-10-01T11:54:29.658Z,25.86
2022-10-01T11:55:51.420Z,25.90
2022-10-01T11:57:13.846Z,25.92
2022-10-01T11:58:51.123Z,25.88
2022-10-01T12:00:04.307Z,25.96
2022-10-01T12:01:35.066Z,26.08
2022-10-01T12:02:50.065Z,25.99
2022-10-01T12:03:54.587Z,26.16
2022-10-01T12:05:10.399Z,25.94
2022-10-01T12:06:14.902Z,25.71
2022-10-01T12:07:20.352Z,25.60
2022-10-01T12:08:27.778Z,25.71
2022-10-01T12:09:42.430Z,25.24
2022-10-01T12:11:18.865Z,24.67
2022-10-01T12:12:26.500Z,24.78
2022-10-01T12:13:41.300Z,24.80
2022-10-01T12:14:51.786Z,24.77
2022-10-01T12:16:05.057Z,24.80
2022-10-01T12:17:33.002Z,24.63
2022-10-01T12:18:40.695Z,24.72
2022-10-01T12:19:49.709Z,25.02
2022-10-01T12:20:57.704Z,25.30
2022-10-01T12:22:17.972Z,25.33
2022-10-01T12:23:24.867Z,25.27
2022-10-01T12:24:38.468Z,25.43
2022-10-01T12:25:49.121Z,25.13
2022-10-01T12:27:02.260Z,24.93
2022-10-01T12:28:12.938Z,25.04
2022-10-01T12:29:40.473Z,25.02
2022-10-01T12:30:54.792Z,24.96
2022-10-01T12:32:00.605Z,25.34
2022-10-01T12:33:24.625Z,24.99
2022-10-01T12:34:28.843Z,25.07
2022-10-01T12:35:58.459Z,25.23
2022-10-01T12:37:12.721Z,25.43
2022-10-01T12:38:14.171Z,25.46
2022-10-01T12:39:54.083Z,25.21
2022-10-01T12:41:11.119Z,25.38
2022-10-01T12:42:31.596Z,25.56
2022-10-01T12:43:50.541Z,25.07
2022-10-01T12:45:21.868Z,24.34
2022-10-01T12:46:52.003Z,24.44
2022-10-01T12:48:19.684Z,24.99
2022-10-01T12:49:36.182Z,25.37
2022-10-01T12:50:52.873Z,25.64
2022-10-01T12:52:27.619Z,25.65
2022-10-01T12:54:00.458Z,25.23
2022-10-01T12:55:34.417Z,25.40
2022-10-01T12:56:45.098Z,25.38
2022-10-01T12:58:12.910Z,24.89
2022-10-01T12:59:39.267Z,24.61
2022-10-01T13:01:25.716Z,24.62
2022-10-01T13:02:41.762Z,24.99
2022-10-01T13:04:09.900Z,24.76
2022-10-01T13:05:21.874Z,23.95
2022-10-01T13:06:32.612Z,24.30
2022-10-01T13:08:01.012Z,24.77
2022-10-01T13:09:09.243Z,24.98
2022-10-01T13:10:32.612Z,25.20
2022-10-01T13:11:40.154Z,25.30
2022-10-01T13:13:23.299Z,25.30
2022-10-01T13:14:25.400Z,25.55
2022-10-01T13:15:36.209Z,25.25
2022-10-01T13:16:45.612Z,24.83
2022-10-01T13:17:55.025Z,24.78
2022-10-01T13:19:31.707Z,24.52
2022-10-01T13:21:00.967Z,23.82
2022-10-01T13:22:14.855Z,23.77
2022-10-01T13:23:39.440Z,24.28
2022-10-01T13:24:51.279Z,24.64
2022-10-01T13:26:17.511Z,24.86
2022-10-01T13:27:39.101Z,24.84
2022-10-01T13:28:58.540Z,25.02
2022-10-01T13:30:19.141Z,25.16
2022-10-01T13:31:34.903Z,25.37
2022-10-01T13:33:00.906Z,25.49
2022-10-01T13:34:03.307Z,25.53
2022-10-01T13:35:25.164Z,25.60
2022-10-01T13:36:35.629Z,25.72
2022-10-01T13:37:39.866Z,25.81
2022-10-01T13:38:43.836Z,25.90
2022-10-01T13:39:47.503Z,25.98
2022-10-01T13:41:01.364Z,26.04
2022-10-01T13:42:05.405Z,25.96
2022-10-01T13:43:20.171Z,25.94
2022-10-01T13:44:34.723Z,26.02
2022-10-01T13:45:39.005Z,26.07
2022-10-01T13:47:03.119Z,26.12
2022-10-01T13:48:26.371Z,26.27
2022-10-01T13:49:30.723Z,26.36
2022-10-01T13:50:32.603Z,26.41
2022-10-01T13:51:36.206Z,26.28
2022-10-01T13:52:38.015Z,26.23
2022-10-01T13:53:42.573Z,26.23
2022-10-01T13:54:51.206Z,26.07
2022-10-01T13:55:54.236Z,26.20
2022-10-01T13:56:55.932Z,26.22
2022-10-01T13:58:05.989Z,26.21
2022-10-01T13:59:39.837Z,26.13
2022-10-01T14:00:53.525Z,26.17
2022-10-01T14:01:55.330Z,26.27
2022-10-01T14:03:28.814Z,26.25
2022-10-01T14:04:40.207Z,26.31
2022-10-01T14:05:43.191Z,26.37
2022-10-01T14:07:25.252Z,26.36
2022-10-01T14:08:38.194Z,26.47
2022-10-01T14:10:01.362Z,26.53
2022-10-01T14:11:36.819Z,26.59
2022-10-01T14:13:00.210Z,26.69
2022-10-01T14:14:31.500Z,26.67
2022-10-01T14:16:02.778Z,26.71
2022-10-01T14:17:06.659Z,26.75
2022-10-01T14:18:22.423Z,26.73
2022-10-01T14:19:26.067Z,26.79
2022-10-01T14:20:32.828Z,26.79
2022-10-01T14:21:58.682Z,26.76
2022-10-01T14:23:13.533Z,26.71
2022-10-01T14:24:36.326Z,26.63
2022-10-01T14:25:50.316Z,26.67
2022-10-01T14:27:41.411Z,26.67
2022-10-01T14:29:27.402Z,26.65
2022-10-01T14:30:47.408Z,26.57
2022-10-01T14:32:16.977Z,26.40
2022-10-01T14:33:45.756Z,26.54
2022-10-01T14:34:59.405Z,26.66
2022-10-01T14:36:03.691Z,26.67
2022-10-01T14:37:16.980Z,26.65
2022-10-01T14:38:21.368Z,26.61
2022-10-01T14:39:26.021Z,26.43
2022-10-01T14:40:37.762Z,26.34